Time;durP1;ratioP1;P1;durP2;ratioP2;P2;SDS_P1;SDS_P2;PMS_P1;PMS_P2;Temp;Humidity;BMP_temperature;BMP_pressure;BME280_temperature;BME280_humidity;BME280_pressure;Samples;Min_cycle;Max_cycle;Signal;HPM_P1;HPM_P2
2023/07/01 00:00:50;;;;;;;76.15;40.53;;;;;;;15.73;100.00;95670.16;2107100;28;20054;-54
2023/07/01 00:01:51;;;;;;;78.00;39.35;;;;;;;15.62;100.00;95661.28;2115662;28;20052;-54
2023/07/01 00:02:53;;;;;;;83.15;39.90;;;;;;;15.73;100.00;95672.78;2116306;28;20047;-55
2023/07/01 00:03:54;;;;;;;57.30;32.13;;;;;;;15.70;100.00;95670.41;2115671;28;20055;-55
2023/07/01 00:04:55;;;;;;;54.58;29.58;;;;;;;15.62;100.00;95674.38;2115545;28;20395;-55
2023/07/01 00:05:59;;;;;;;49.45;26.75;;;;;;;15.55;100.00;95675.75;2115872;28;20048;-54
2023/07/01 00:07:00;;;;;;;34.20;20.42;;;;;;;15.39;99.83;95673.38;2106357;28;20044;-54
2023/07/01 00:08:01;;;;;;;35.50;22.42;;;;;;;15.35;99.62;95668.50;2106797;28;20078;-54
2023/07/01 00:09:02;;;;;;;36.72;23.05;;;;;;;15.33;99.54;95679.06;2115671;28;20504;-54
2023/07/01 00:10:04;;;;;;;38.58;22.95;;;;;;;15.28;100.00;95677.72;2116144;28;20055;-54
2023/07/01 00:11:06;;;;;;;38.95;22.55;;;;;;;15.23;99.74;95678.03;2115322;28;20055;-55
2023/07/01 00:12:08;;;;;;;33.42;21.00;;;;;;;15.12;100.00;95677.97;2115929;28;20055;-55
2023/07/01 00:13:09;;;;;;;31.42;19.63;;;;;;;15.05;99.88;95672.34;2115332;28;20047;-55
2023/07/01 00:14:10;;;;;;;28.65;18.73;;;;;;;14.88;98.46;95680.50;2115806;28;20403;-54
2023/07/01 00:15:11;;;;;;;32.05;19.45;;;;;;;14.85;98.34;95681.56;2115625;28;20044;-54
2023/07/01 00:16:13;;;;;;;32.40;18.55;;;;;;;14.84;99.65;95684.31;2114876;28;20051;-55
2023/07/01 00:17:16;;;;;;;29.50;19.05;;;;;;;14.73;99.25;95678.03;2115466;28;20051;-55
2023/07/01 00:18:17;;;;;;;29.65;18.92;;;;;;;14.69;99.64;95687.00;2114914;28;20059;-55
2023/07/01 00:19:18;;;;;;;33.85;18.77;;;;;;;14.65;99.74;95690.78;2115016;28;20062;-54
2023/07/01 00:20:19;;;;;;;32.38;19.35;;;;;;;14.62;99.95;95691.00;2114978;28;20052;-54
2023/07/01 00:21:20;;;;;;;36.45;21.38;;;;;;;14.55;99.95;95692.34;2115873;28;20048;-54
2023/07/01 00:22:21;;;;;;;37.63;22.52;;;;;;;14.54;100.00;95691.53;2115951;28;20062;-54
2023/07/01 00:23:22;;;;;;;39.42;21.70;;;;;;;14.51;100.00;95689.09;2115613;28;20066;-55
2023/07/01 00:24:23;;;;;;;39.22;22.10;;;;;;;14.51;100.00;95693.44;2115789;28;20059;-54
2023/07/01 00:25:25;;;;;;;37.42;21.80;;;;;;;14.46;100.00;95693.78;2115846;28;20529;-54
2023/07/01 00:26:26;;;;;;;42.10;22.85;;;;;;;14.39;100.00;95683.84;2106712;28;20048;-55
2023/07/01 00:27:27;;;;;;;38.60;22.65;;;;;;;14.40;100.00;95690.72;2107197;28;20044;-54
2023/07/01 00:28:28;;;;;;;38.38;20.83;;;;;;;14.41;100.00;95697.66;2106128;28;20069;-55
2023/07/01 00:29:29;;;;;;;34.08;20.88;;;;;;;14.38;100.00;95688.25;2098659;28;20431;-54
2023/07/01 00:30:30;;;;;;;41.38;22.77;;;;;;;14.38;100.00;95688.25;2098154;28;20056;-55
2023/07/01 00:31:31;;;;;;;34.55;22.20;;;;;;;14.40;100.00;95686.34;2107200;28;20044;-55
2023/07/01 00:32:32;;;;;;;44.35;24.42;;;;;;;14.43;100.00;95690.53;2116157;28;20047;-55
2023/07/01 00:33:33;;;;;;;40.83;23.95;;;;;;;14.43;100.00;95698.34;2115401;28;20483;-55
2023/07/01 00:34:35;;;;;;;37.17;22.60;;;;;;;14.41;100.00;95689.81;2106655;28;20079;-55
2023/07/01 00:35:36;;;;;;;54.30;21.80;;;;;;;14.39;100.00;95689.91;2098560;28;20048;-54
2023/07/01 00:36:37;;;;;;;33.78;20.48;;;;;;;14.37;100.00;95690.94;2098361;28;20053;-54
2023/07/01 00:37:38;;;;;;;34.03;21.00;;;;;;;14.33;100.00;95688.53;2106457;28;20044;-54
2023/07/01 00:38:39;;;;;;;37.50;22.42;;;;;;;14.33;100.00;95692.94;2106096;28;20056;-55
2023/07/01 00:39:40;;;;;;;31.65;20.30;;;;;;;14.31;100.00;95689.56;2106208;28;20063;-55
2023/07/01 00:40:41;;;;;;;34.97;21.15;;;;;;;14.29;100.00;95689.66;2115503;28;20074;-55
2023/07/01 00:41:44;;;;;;;37.00;21.30;;;;;;;14.30;100.00;95690.50;2106925;28;20070;-54
2023/07/01 00:42:45;;;;;;;42.22;23.13;;;;;;;14.32;100.00;95688.63;2090502;28;20491;-55
2023/07/01 00:43:46;;;;;;;33.78;19.58;;;;;;;14.31;100.00;95695.63;2090003;28;20060;-55
2023/07/01 00:44:47;;;;;;;31.52;20.10;;;;;;;14.32;100.00;95696.47;2106887;28;20040;-54
2023/07/01 00:45:49;;;;;;;29.27;19.02;;;;;;;14.22;100.00;95685.81;2115981;28;20035;-55
2023/07/01 00:46:50;;;;;;;33.25;20.67;;;;;;;14.26;100.00;95695.09;2115961;28;20462;-55
2023/07/01 00:47:51;;;;;;;37.50;22.55;;;;;;;14.21;100.00;95675.44;2106415;28;20401;-54
2023/07/01 00:48:52;;;;;;;37.80;21.73;;;;;;;14.28;100.00;95688.00;2098555;28;20047;-55
2023/07/01 00:49:53;;;;;;;34.67;21.35;;;;;;;14.29;100.00;95689.66;2098467;28;20048;-54
2023/07/01 00:50:54;;;;;;;35.35;21.25;;;;;;;14.32;100.00;95691.25;2098500;28;20036;-54
2023/07/01 00:51:56;;;;;;;36.53;21.70;;;;;;;14.22;100.00;95671.88;2106291;28;20059;-55
2023/07/01 00:52:57;;;;;;;34.22;20.25;;;;;;;14.26;100.00;95689.03;2114917;28;20040;-54
2023/07/01 00:53:58;;;;;;;30.85;20.42;;;;;;;14.23;100.00;95690.09;2106861;28;20083;-55
2023/07/01 00:54:59;;;;;;;32.40;19.15;;;;;;;14.22;100.00;95690.16;2089536;28;20045;-54
2023/07/01 00:56:03;;;;;;;28.17;17.35;;;;;;;14.19;100.00;95696.44;2081974;28;20448;-55
2023/07/01 00:57:04;;;;;;;36.92;21.42;;;;;;;14.16;100.00;95696.63;2090324;28;20060;-54
2023/07/01 00:58:05;;;;;;;29.33;18.40;;;;;;;14.07;100.00;95679.81;2089434;28;20045;-55
2023/07/01 00:59:07;;;;;;;35.67;19.73;;;;;;;14.15;100.00;95697.59;2090371;28;20051;-55
2023/07/01 01:00:12;;;;;;;31.17;20.35;;;;;;;14.17;100.00;95697.50;2097933;28;20051;-55
2023/07/01 01:01:15;;;;;;;31.05;19.50;;;;;;;14.17;100.00;95702.72;2106396;28;20052;-54
2023/07/01 01:02:19;;;;;;;34.50;19.50;;;;;;;14.04;100.00;95679.19;2106997;28;20056;-55
2023/07/01 01:03:32;;;;;;;36.25;21.67;;;;;;;14.11;100.00;95685.66;2106292;28;20047;-55
2023/07/01 01:04:37;;;;;;;30.00;18.98;;;;;;;14.14;100.00;95693.31;2097924;28;20067;-55
2023/07/01 01:05:45;;;;;;;33.40;19.90;;;;;;;14.13;100.00;95694.25;2091059;28;20056;-55
2023/07/01 01:06:53;;;;;;;32.70;19.98;;;;;;;14.03;100.00;95677.50;2083268;28;20049;-55
2023/07/01 01:08:12;;;;;;;29.90;19.23;;;;;;;14.10;100.00;95692.66;2092420;28;20448;-55
2023/07/01 01:09:41;;;;;;;31.13;19.25;;;;;;;14.09;100.00;95693.63;2084978;28;20433;-55
2023/07/01 01:10:42;;;;;;;28.80;17.83;;;;;;;14.06;100.00;95692.97;2093075;28;20054;-55
2023/07/01 01:11:45;;;;;;;31.10;19.45;;;;;;;14.06;100.00;95693.81;2100633;28;20064;-54
2023/07/01 01:12:46;;;;;;;34.03;19.90;;;;;;;14.04;100.00;95684.41;2107348;28;20044;-55
2023/07/01 01:13:47;;;;;;;35.50;19.55;;;;;;;14.03;100.00;95690.56;2090093;28;20060;-54
2023/07/01 01:14:48;;;;;;;34.90;19.55;;;;;;;13.92;100.00;95675.59;2090277;28;20048;-55
2023/07/01 01:15:49;;;;;;;35.10;21.40;;;;;;;14.06;100.00;95690.34;2098247;28;20045;-55
2023/07/01 01:16:50;;;;;;;34.22;20.42;;;;;;;14.06;100.00;95686.00;2106690;28;20051;-55
2023/07/01 01:17:52;;;;;;;34.70;20.27;;;;;;;13.97;100.00;95678.75;2097977;28;20053;-55
2023/07/01 01:18:54;;;;;;;32.60;19.92;;;;;;;14.07;100.00;95692.03;2097643;28;20047;-55
2023/07/01 01:19:57;;;;;;;35.75;20.80;;;;;;;14.08;100.00;95694.53;2106816;28;20044;-55
2023/07/01 01:20:58;;;;;;;33.55;20.00;;;;;;;14.05;100.00;95691.28;2082113;28;20045;-55
2023/07/01 01:22:26;;;;;;;33.88;20.67;;;;;;;14.08;100.00;95698.94;2090387;28;20037;-55
2023/07/01 01:23:29;;;;;;;31.27;18.92;;;;;;;14.05;100.00;95696.50;2097152;28;20419;-55
2023/07/01 01:24:31;;;;;;;32.38;19.65;;;;;;;13.88;100.00;95674.97;2098638;28;20055;-55
2023/07/01 01:25:35;;;;;;;31.10;19.83;;;;;;;13.98;100.00;95696.09;2097769;28;20057;-55
2023/07/01 01:26:40;;;;;;;30.63;19.45;;;;;;;13.89;100.00;95681.03;2098144;28;20047;-55
2023/07/01 01:27:41;;;;;;;35.15;19.00;;;;;;;13.95;100.00;95695.44;2098579;28;20060;-54
2023/07/01 01:28:43;;;;;;;31.58;18.17;;;;;;;13.91;100.00;95692.22;2098088;28;20463;-55
2023/07/01 01:29:44;;;;;;;33.15;18.95;;;;;;;13.93;100.00;95687.72;2097727;28;20052;-54
2023/07/01 01:30:45;;;;;;;32.05;19.35;;;;;;;13.95;100.00;95692.84;2106694;28;20046;-55
2023/07/01 01:31:46;;;;;;;33.28;19.13;;;;;;;13.94;100.00;95691.16;2106737;28;20043;-55
2023/07/01 01:32:47;;;;;;;29.50;18.55;;;;;;;13.94;100.00;95689.38;2105677;28;20056;-54
2023/07/01 01:33:48;;;;;;;31.00;19.48;;;;;;;13.95;100.00;95687.63;2098444;28;20395;-55
2023/07/01 01:34:49;;;;;;;29.02;18.75;;;;;;;13.96;100.00;95697.13;2105903;28;20052;-55
2023/07/01 01:35:50;;;;;;;33.17;19.38;;;;;;;13.95;100.00;95693.66;2105977;28;20048;-54
2023/07/01 01:36:53;;;;;;;36.00;21.08;;;;;;;13.96;100.00;95687.53;2115000;28;20380;-55
2023/07/01 01:38:10;;;;;;;31.88;18.90;;;;;;;13.95;100.00;95687.63;2105920;28;20482;-55
2023/07/01 01:39:11;;;;;;;35.22;20.23;;;;;;;13.85;100.00;95674.34;2108084;28;20055;-55
2023/07/01 01:40:23;;;;;;;32.50;18.73;;;;;;;13.91;100.00;95684.38;2106428;28;20471;-55
2023/07/01 01:41:30;;;;;;;33.25;18.48;;;;;;;13.84;100.00;95688.31;2099014;28;20061;-55
2023/07/01 01:42:31;;;;;;;35.83;19.60;;;;;;;13.86;100.00;95687.28;2098630;28;20048;-54
2023/07/01 01:43:46;;;;;;;31.98;19.23;;;;;;;13.86;100.00;95695.09;2090084;28;20048;-55
2023/07/01 01:44:51;;;;;;;35.65;20.00;;;;;;;13.88;100.00;95695.03;2092723;28;20056;-55
2023/07/01 01:45:53;;;;;;;31.13;18.02;;;;;;;13.87;100.00;95693.31;2107507;28;20051;-55
2023/07/01 01:46:54;;;;;;;34.50;19.40;;;;;;;13.76;100.00;95670.53;2105566;28;20079;-55
2023/07/01 01:47:56;;;;;;;34.85;19.17;;;;;;;13.88;100.00;95695.03;2097999;28;20048;-55
2023/07/01 01:48:59;;;;;;;28.10;18.42;;;;;;;13.80;100.00;95674.63;2097859;28;20055;-57
2023/07/01 01:50:06;;;;;;;32.38;19.17;;;;;;;13.90;100.00;95699.22;2082170;28;20041;-57
2023/07/01 01:51:07;;;;;;;35.22;20.08;;;;;;;13.92;100.00;95690.44;2083363;28;20076;-57
2023/07/01 01:52:13;;;;;;;30.42;17.95;;;;;;;13.91;100.00;95694.81;2089969;28;20049;-57
2023/07/01 01:53:14;;;;;;;34.03;19.83;;;;;;;13.78;100.00;95683.50;2089667;28;20524;-57
2023/07/01 01:54:15;;;;;;;31.30;20.00;;;;;;;13.87;100.00;95695.94;2098205;28;20072;-57
2023/07/01 01:55:16;;;;;;;30.75;18.05;;;;;;;13.87;100.00;95703.75;2097854;28;20052;-57
2023/07/01 01:56:18;;;;;;;32.30;18.60;;;;;;;13.88;100.00;95698.47;2097773;28;20049;-56
2023/07/01 01:57:19;;;;;;;32.70;19.13;;;;;;;13.87;100.00;95699.41;2097209;28;20049;-57
2023/07/01 01:58:20;;;;;;;29.10;17.38;;;;;;;13.82;100.00;95693.66;2089958;28;20049;-57
2023/07/01 01:59:21;;;;;;;34.05;19.38;;;;;;;13.74;100.00;95679.41;2089373;28;20056;-57
2023/07/01 02:00:22;;;;;;;28.75;18.15;;;;;;;13.84;100.00;95696.97;2098068;28;20040;-57
2023/07/01 02:01:24;;;;;;;30.23;18.67;;;;;;;13.82;100.00;95693.66;2098128;28;20045;-56
2023/07/01 02:02:25;;;;;;;33.53;18.77;;;;;;;13.81;100.00;95691.13;2106405;28;20039;-57
2023/07/01 02:03:26;;;;;;;35.03;19.77;;;;;;;13.85;100.00;95700.44;2114520;28;20109;-57
2023/07/01 02:04:28;;;;;;;33.10;18.58;;;;;;;13.83;100.00;95702.31;2106465;28;20051;-56
2023/07/01 02:05:29;;;;;;;30.20;17.60;;;;;;;13.77;100.00;95694.88;2106446;28;20449;-57
2023/07/01 02:06:30;;;;;;;28.63;18.02;;;;;;;13.74;100.00;95695.91;2097939;28;20055;-57
2023/07/01 02:07:32;;;;;;;32.13;18.90;;;;;;;13.75;100.00;95705.41;2089187;28;20049;-56
2023/07/01 02:08:33;;;;;;;27.15;17.20;;;;;;;13.72;100.00;95699.56;2106669;28;20047;-56
2023/07/01 02:09:34;;;;;;;31.83;17.75;;;;;;;13.71;100.00;95698.69;2105741;28;20052;-57
2023/07/01 02:10:35;;;;;;;34.55;18.08;;;;;;;13.74;100.00;95702.88;2105548;28;20127;-56
2023/07/01 02:11:37;;;;;;;31.42;17.90;;;;;;;13.77;100.00;95694.88;2115445;28;20071;-57
2023/07/01 02:12:38;;;;;;;29.77;18.08;;;;;;;13.80;100.00;95698.13;2106172;28;20056;-57
2023/07/01 02:13:40;;;;;;;29.80;17.83;;;;;;;13.81;100.00;95694.56;2097943;28;20048;-57
2023/07/01 02:14:41;;;;;;;29.77;17.80;;;;;;;13.84;100.00;95690.91;2097925;28;20049;-57
2023/07/01 02:15:42;;;;;;;27.98;17.20;;;;;;;13.84;100.00;95699.59;2097767;28;20048;-56
2023/07/01 02:16:43;;;;;;;29.77;18.48;;;;;;;13.79;100.00;95691.25;2097870;28;20059;-57
2023/07/01 02:17:44;;;;;;;27.90;17.83;;;;;;;13.77;100.00;95689.66;2097148;28;20404;-57
2023/07/01 02:18:45;;;;;;;28.08;17.35;;;;;;;13.79;100.00;95685.16;2097447;28;20049;-57
2023/07/01 02:19:47;;;;;;;28.27;17.70;;;;;;;13.83;100.00;95692.69;2105201;28;20048;-56
2023/07/01 02:20:48;;;;;;;31.38;17.55;;;;;;;13.86;100.00;95691.66;2114379;28;20070;-57
2023/07/01 02:21:49;;;;;;;28.67;16.50;;;;;;;13.77;100.00;95672.22;2105365;28;20059;-56
2023/07/01 02:22:50;;;;;;;28.83;17.20;;;;;;;13.88;100.00;95687.19;2106113;28;20032;-57
2023/07/01 02:23:51;;;;;;;26.30;15.70;;;;;;;13.88;100.00;95689.81;2114931;28;20067;-57
2023/07/01 02:24:52;;;;;;;28.45;17.98;;;;;;;13.90;100.00;95687.94;2114554;28;20058;-62
2023/07/01 02:25:53;;;;;;;32.67;18.13;;;;;;;13.90;100.00;95693.16;2115299;28;20047;-56
2023/07/01 02:26:54;;;;;;;29.23;18.35;;;;;;;13.88;100.00;95695.03;2115375;28;20048;-57
2023/07/01 02:27:55;;;;;;;34.83;18.45;;;;;;;13.89;100.00;95702.72;2114269;28;20390;-57
2023/07/01 02:28:57;;;;;;;39.35;20.13;;;;;;;13.88;100.00;95690.63;2114549;28;20055;-57
2023/07/01 02:29:59;;;;;;;35.60;19.88;;;;;;;13.81;100.00;95686.75;2115331;28;20051;-56
2023/07/01 02:31:00;;;;;;;32.60;17.65;;;;;;;13.91;100.00;95692.22;2115216;28;20039;-56
2023/07/01 02:32:02;;;;;;;29.75;18.35;;;;;;;13.90;100.00;95688.75;2106259;28;20044;-56
2023/07/01 02:33:03;;;;;;;30.85;17.83;;;;;;;13.73;100.00;95675.97;2097812;28;20427;-56
2023/07/01 02:34:04;;;;;;;32.67;17.63;;;;;;;13.83;100.00;95692.69;2097710;28;20051;-57
2023/07/01 02:35:06;;;;;;;29.88;17.33;;;;;;;13.72;100.00;95683.91;2097530;28;20063;-57
2023/07/01 02:36:07;;;;;;;28.83;17.65;;;;;;;13.80;100.00;95690.28;2105831;28;20178;-57
2023/07/01 02:37:08;;;;;;;31.52;17.63;;;;;;;13.81;100.00;95693.72;2105562;28;20470;-56
2023/07/01 02:38:09;;;;;;;26.55;15.98;;;;;;;13.79;100.00;95686.03;2097867;28;20045;-56
2023/07/01 02:39:10;;;;;;;34.25;18.17;;;;;;;13.82;100.00;95692.78;2097987;28;20060;-56
2023/07/01 02:40:11;;;;;;;25.88;16.17;;;;;;;13.81;100.00;95691.13;2097960;28;20048;-57
2023/07/01 02:41:12;;;;;;;28.50;17.30;;;;;;;13.83;100.00;95692.69;2097853;28;20056;-57
2023/07/01 02:42:19;;;;;;;26.17;16.75;;;;;;;13.83;100.00;95697.91;2106091;28;20051;-57
2023/07/01 02:43:20;;;;;;;29.75;17.38;;;;;;;13.81;100.00;95698.94;2114264;28;20062;-56
2023/07/01 02:44:21;;;;;;;28.90;17.45;;;;;;;13.80;100.00;95695.50;2115115;28;20039;-56
2023/07/01 02:45:22;;;;;;;30.00;16.85;;;;;;;13.80;100.00;95695.50;2115130;28;20046;-57
2023/07/01 02:46:24;;;;;;;24.45;16.17;;;;;;;13.80;100.00;95690.28;2114508;28;20050;-56
2023/07/01 02:47:25;;;;;;;26.05;17.20;;;;;;;13.77;100.00;95698.31;2114986;28;20092;-57
2023/07/01 02:48:26;;;;;;;24.08;15.25;;;;;;;13.79;100.00;95693.84;2114330;28;20066;-57
2023/07/01 02:49:27;;;;;;;29.88;17.67;;;;;;;13.79;100.00;95693.84;2114330;28;20056;-57
2023/07/01 02:50:29;;;;;;;30.45;16.80;;;;;;;13.81;100.00;95691.13;2105837;28;20048;-57
2023/07/01 02:51:30;;;;;;;33.30;18.30;;;;;;;13.80;100.00;95692.91;2106210;28;20515;-57
2023/07/01 02:52:31;;;;;;;30.27;18.83;;;;;;;13.82;100.00;95680.59;2105897;28;20055;-56
2023/07/01 02:53:32;;;;;;;28.02;17.35;;;;;;;13.81;100.00;95685.91;2097599;28;20047;-56
2023/07/01 02:54:33;;;;;;;30.23;17.02;;;;;;;13.85;100.00;95695.22;2096869;28;20124;-56
2023/07/01 02:55:35;;;;;;;28.02;16.73;;;;;;;13.86;100.00;95687.28;2105815;28;20047;-57
2023/07/01 02:56:36;;;;;;;27.60;16.80;;;;;;;13.83;100.00;95695.31;2115103;28;20050;-57
2023/07/01 02:57:37;;;;;;;26.13;16.20;;;;;;;13.82;100.00;95692.78;2114761;28;20048;-57
2023/07/01 02:58:38;;;;;;;28.98;16.20;;;;;;;13.81;100.00;95698.94;2114322;28;20055;-57
2023/07/01 02:59:39;;;;;;;28.77;17.30;;;;;;;13.77;100.00;95689.66;2114358;28;20058;-57
2023/07/01 03:00:41;;;;;;;32.28;17.90;;;;;;;13.82;100.00;95696.25;2115110;28;20044;-56
2023/07/01 03:01:44;;;;;;;26.48;16.70;;;;;;;13.81;100.00;95691.97;2114254;28;20052;-56
2023/07/01 03:02:45;;;;;;;31.63;18.00;;;;;;;13.81;100.00;95696.34;2105814;28;20044;-56
2023/07/01 03:03:49;;;;;;;27.52;17.13;;;;;;;13.84;100.00;95693.53;2105898;28;20036;-56
2023/07/01 03:04:50;;;;;;;26.77;16.85;;;;;;;13.85;100.00;95693.44;2106002;28;20040;-56
2023/07/01 03:05:51;;;;;;;26.10;16.55;;;;;;;13.86;100.00;95687.28;2105946;28;20058;-57
2023/07/01 03:06:53;;;;;;;27.95;16.85;;;;;;;13.86;100.00;95684.66;2096541;28;20052;-57
2023/07/01 03:07:55;;;;;;;31.33;17.50;;;;;;;13.88;100.00;95695.84;2097736;28;20039;-56
2023/07/01 03:08:56;;;;;;;30.00;17.40;;;;;;;13.86;100.00;95682.06;2114228;28;20058;-56
2023/07/01 03:09:57;;;;;;;31.27;17.27;;;;;;;13.89;100.00;95686.25;2114727;28;20047;-57
2023/07/01 03:10:58;;;;;;;31.85;17.75;;;;;;;13.92;100.00;95680.81;2108785;28;20040;-57
2023/07/01 03:11:59;;;;;;;25.80;16.92;;;;;;;13.88;100.00;95674.97;2097002;28;20051;-56
2023/07/01 03:13:00;;;;;;;34.20;16.98;;;;;;;13.98;100.00;95683.03;2097643;28;20048;-56
2023/07/01 03:14:02;;;;;;;27.75;17.15;;;;;;;13.95;100.00;95674.56;2105084;28;20135;-57
2023/07/01 03:15:03;;;;;;;25.73;16.63;;;;;;;13.84;100.00;95663.03;2114209;28;20055;-56
2023/07/01 03:16:06;;;;;;;24.10;16.05;;;;;;;13.98;100.00;95690.00;2105961;28;20407;-56
2023/07/01 03:17:07;;;;;;;27.75;16.13;;;;;;;13.94;100.00;95688.56;2105306;28;20063;-57
2023/07/01 03:18:10;;;;;;;24.48;15.52;;;;;;;13.94;100.00;95685.94;2113458;28;20051;-57
2023/07/01 03:19:11;;;;;;;30.45;17.83;;;;;;;13.94;100.00;95688.56;2106289;28;20055;-57
2023/07/01 03:20:22;;;;;;;28.45;17.63;;;;;;;13.84;100.00;95668.25;2105842;28;20063;-58
2023/07/01 03:21:26;;;;;;;27.40;15.80;;;;;;;13.94;100.00;95694.59;2104916;28;20044;-58
2023/07/01 03:22:27;;;;;;;25.88;16.33;;;;;;;13.89;100.00;95696.69;2097478;28;20051;-58
2023/07/01 03:23:29;;;;;;;24.65;15.70;;;;;;;13.92;100.00;95701.69;2097681;28;20048;-58
2023/07/01 03:24:33;;;;;;;25.77;15.77;;;;;;;13.86;100.00;95696.88;2106053;28;20071;-57
2023/07/01 03:25:35;;;;;;;26.92;16.77;;;;;;;13.88;100.00;95697.63;2105896;28;20044;-57
2023/07/01 03:26:37;;;;;;;26.20;15.90;;;;;;;13.89;100.00;95697.50;2096590;28;20080;-57
2023/07/01 03:27:38;;;;;;;28.10;17.50;;;;;;;13.87;100.00;95698.53;2104979;28;20056;-57
2023/07/01 03:28:39;;;;;;;25.98;16.35;;;;;;;13.89;100.00;95700.13;2114408;28;20055;-57
2023/07/01 03:29:41;;;;;;;27.63;16.63;;;;;;;13.89;100.00;95691.47;2114949;28;20046;-58
2023/07/01 03:30:42;;;;;;;27.70;16.65;;;;;;;13.89;100.00;95689.69;2105737;28;20043;-57
2023/07/01 03:31:43;;;;;;;26.27;17.05;;;;;;;13.85;100.00;95684.78;2096926;28;20053;-57
2023/07/01 03:32:46;;;;;;;26.20;16.90;;;;;;;13.87;100.00;95688.09;2105998;28;20106;-57
2023/07/01 03:33:47;;;;;;;26.60;16.05;;;;;;;13.88;100.00;95697.63;2114220;28;20066;-57
2023/07/01 03:34:48;;;;;;;31.08;17.77;;;;;;;13.86;100.00;95697.72;2114279;28;20047;-57
2023/07/01 03:35:49;;;;;;;27.90;17.15;;;;;;;13.89;100.00;95688.84;2114867;28;20051;-57
2023/07/01 03:36:50;;;;;;;28.33;17.55;;;;;;;13.88;100.00;95690.63;2115080;28;20027;-57
2023/07/01 03:37:51;;;;;;;22.52;14.70;;;;;;;13.85;100.00;95696.06;2114434;28;20082;-57
2023/07/01 03:38:55;;;;;;;23.83;15.63;;;;;;;13.83;100.00;95682.25;2114073;28;20040;-57
2023/07/01 03:39:56;;;;;;;25.65;16.30;;;;;;;13.87;100.00;95681.13;2114800;28;20035;-57
2023/07/01 03:40:57;;;;;;;26.75;15.43;;;;;;;13.86;100.00;95681.22;2114815;28;20438;-57
2023/07/01 03:41:58;;;;;;;25.05;16.13;;;;;;;13.86;100.00;95684.66;2115031;28;20040;-57
2023/07/01 03:43:00;;;;;;;28.88;17.05;;;;;;;13.84;100.00;95678.69;2114387;28;20051;-57
2023/07/01 03:44:01;;;;;;;25.20;16.73;;;;;;;13.85;100.00;95685.63;2114969;28;20043;-57
2023/07/01 03:45:04;;;;;;;26.25;16.42;;;;;;;13.87;100.00;95681.13;2114140;28;20503;-57
2023/07/01 03:46:05;;;;;;;27.88;17.58;;;;;;;13.87;100.00;95678.53;2114955;28;20047;-57
2023/07/01 03:47:06;;;;;;;28.13;16.85;;;;;;;13.84;100.00;95678.69;2114619;28;20057;-57
2023/07/01 03:48:07;;;;;;;27.92;16.95;;;;;;;13.88;100.00;95677.59;2114208;28;20058;-57
2023/07/01 03:49:09;;;;;;;30.30;18.45;;;;;;;13.88;100.00;95677.59;2114432;28;20506;-57
2023/07/01 03:50:10;;;;;;;28.25;17.50;;;;;;;13.89;100.00;95679.25;2114349;28;20062;-57
2023/07/01 03:51:11;;;;;;;33.78;18.08;;;;;;;13.89;100.00;95673.19;2114010;28;20056;-56
2023/07/01 03:52:12;;;;;;;26.17;16.35;;;;;;;13.88;100.00;95667.13;2114975;28;20401;-56
2023/07/01 03:53:14;;;;;;;29.58;17.63;;;;;;;13.89;100.00;95666.19;2114793;28;20383;-57
2023/07/01 03:54:15;;;;;;;29.27;17.65;;;;;;;13.94;100.00;95668.50;2114751;28;20040;-57
2023/07/01 03:55:17;;;;;;;29.17;18.35;;;;;;;13.97;100.00;95670.91;2114014;28;20059;-57
2023/07/01 03:56:19;;;;;;;34.80;18.67;;;;;;;13.99;100.00;95674.25;2114929;28;20052;-57
2023/07/01 03:57:20;;;;;;;26.48;16.25;;;;;;;14.02;100.00;95668.00;2114814;28;20040;-56
2023/07/01 03:58:24;;;;;;;28.13;16.67;;;;;;;14.03;100.00;95677.50;2114916;28;20500;-57
2023/07/01 03:59:25;;;;;;;24.00;16.70;;;;;;;14.04;100.00;95669.59;2114739;28;20451;-56
2023/07/01 04:00:26;;;;;;;24.70;15.95;;;;;;;13.94;100.00;95672.91;2113748;28;20047;-55
2023/07/01 04:01:29;;;;;;;24.80;15.80;;;;;;;13.97;100.00;95672.69;2105614;28;20048;-56
2023/07/01 04:02:30;;;;;;;24.35;15.52;;;;;;;13.96;100.00;95666.63;2106180;28;20040;-57
2023/07/01 04:03:33;;;;;;;26.48;15.65;;;;;;;13.98;100.00;95663.91;2096677;28;20063;-57
2023/07/01 04:04:34;;;;;;;23.58;15.55;;;;;;;14.03;100.00;95669.66;2088982;28;20399;-57
2023/07/01 04:05:35;;;;;;;27.70;17.08;;;;;;;14.06;100.00;95669.47;2105526;28;20059;-57
2023/07/01 04:06:36;;;;;;;25.08;17.17;;;;;;;14.01;100.00;95656.72;2113805;28;20051;-57
2023/07/01 04:07:39;;;;;;;26.90;16.30;;;;;;;14.05;100.00;95655.56;2114587;28;20047;-57
2023/07/01 04:08:40;;;;;;;33.63;19.10;;;;;;;14.14;100.00;95669.81;2114546;28;20051;-57
2023/07/01 04:09:41;;;;;;;35.90;17.85;;;;;;;14.07;100.00;95650.25;2114620;28;20040;-57
2023/07/01 04:10:42;;;;;;;27.00;16.45;;;;;;;14.06;100.00;95651.19;2113997;28;20051;-57
2023/07/01 04:11:44;;;;;;;25.27;16.10;;;;;;;14.16;100.00;95665.31;2114468;28;20482;-57
2023/07/01 04:12:45;;;;;;;28.67;16.88;;;;;;;14.21;100.00;95671.06;2114424;28;20043;-57
2023/07/01 04:13:46;;;;;;;29.77;17.33;;;;;;;14.18;100.00;95668.66;2114738;28;20050;-57
2023/07/01 04:14:47;;;;;;;24.80;15.55;;;;;;;14.24;100.00;95670.84;2115051;28;20128;-57
2023/07/01 04:15:48;;;;;;;24.45;14.85;;;;;;;14.25;100.00;95672.53;2114761;28;20036;-56
2023/07/01 04:16:50;;;;;;;22.92;15.43;;;;;;;14.23;100.00;95669.19;2114669;28;20043;-57
2023/07/01 04:17:51;;;;;;;24.42;14.60;;;;;;;14.14;100.00;95646.31;2114637;28;20047;-57
2023/07/01 04:18:52;;;;;;;24.25;15.98;;;;;;;14.20;100.00;95676.41;2114127;28;20047;-57
2023/07/01 04:19:53;;;;;;;25.65;16.25;;;;;;;14.21;100.00;95668.44;2114642;28;20063;-57
2023/07/01 04:20:54;;;;;;;25.63;16.58;;;;;;;14.24;100.00;95670.84;2114965;28;20062;-56
2023/07/01 04:21:55;;;;;;;29.52;17.83;;;;;;;14.28;100.00;95661.88;2114880;28;20051;-57
2023/07/01 04:22:56;;;;;;;24.92;16.50;;;;;;;14.28;100.00;95666.28;2114394;28;20154;-57
2023/07/01 04:23:58;;;;;;;23.33;15.63;;;;;;;14.30;100.00;95670.47;2114155;28;20051;-56
2023/07/01 04:24:59;;;;;;;25.58;16.52;;;;;;;14.34;100.00;95666.69;2114267;28;20051;-56
2023/07/01 04:26:00;;;;;;;26.08;16.27;;;;;;;14.40;100.00;95664.59;2113667;28;20059;-57
2023/07/01 04:27:01;;;;;;;26.27;17.63;;;;;;;14.32;100.00;95646.84;2105371;28;20052;-57
2023/07/01 04:28:02;;;;;;;32.13;17.98;;;;;;;14.40;100.00;95668.06;2105703;28;20051;-57
2023/07/01 04:29:03;;;;;;;25.95;16.90;;;;;;;14.41;100.00;95658.47;2114709;28;20050;-56
2023/07/01 04:30:08;;;;;;;32.78;18.10;;;;;;;14.36;100.00;95650.09;2115379;28;20032;-57
2023/07/01 04:31:09;;;;;;;27.90;17.10;;;;;;;14.47;100.00;95665.88;2116162;28;20047;-57
2023/07/01 04:32:10;;;;;;;28.27;17.42;;;;;;;14.51;100.00;95668.19;2107262;28;20048;-56
2023/07/01 04:33:11;;;;;;;30.40;18.02;;;;;;;14.54;100.00;95661.91;2107112;28;20071;-57
2023/07/01 04:34:12;;;;;;;29.35;16.95;;;;;;;14.49;100.00;95662.22;2106828;28;20052;-57
2023/07/01 04:35:14;;;;;;;28.23;17.00;;;;;;;14.49;100.00;95658.78;2106487;28;20052;-57
2023/07/01 04:36:15;;;;;;;32.10;18.48;;;;;;;14.56;100.00;95665.25;2115781;28;20506;-57
2023/07/01 04:37:16;;;;;;;29.77;16.90;;;;;;;14.56;100.00;95662.66;2116232;28;20044;-57
2023/07/01 04:38:17;;;;;;;26.92;16.90;;;;;;;14.60;100.00;95666.75;2115374;28;20048;-56
2023/07/01 04:39:20;;;;;;;29.63;17.23;;;;;;;14.53;100.00;95661.09;2116341;28;20040;-57
2023/07/01 04:40:21;;;;;;;26.30;17.08;;;;;;;14.51;100.00;95659.47;2115434;28;20047;-57
2023/07/01 04:41:22;;;;;;;26.48;16.77;;;;;;;14.53;100.00;95661.09;2115329;28;20062;-55
2023/07/01 04:42:23;;;;;;;25.23;17.00;;;;;;;14.52;100.00;95667.25;2116135;28;20047;-57